createdAt,value
2018-01-02T00:00:28.385Z,80.66
2018-01-02T00:01:28.482Z,80.82
2018-01-02T00:02:28.394Z,80.84
2018-01-02T00:03:28.177Z,80.95
2018-01-02T00:04:28.927Z,81.27
2018-01-02T00:05:28.942Z,80.89
2018-01-02T00:06:28.857Z,81.22
2018-01-02T00:07:28.839Z,81.13
2018-01-02T00:08:28.751Z,80.87
2018-01-02T00:09:28.830Z,80.61
2018-01-02T00:10:28.716Z,80.71
2018-01-02T00:11:28.859Z,81
2018-01-02T00:12:28.922Z,80.81
2018-01-02T00:13:28.964Z,80.69
2018-01-02T00:14:28.941Z,80.74
2018-01-02T00:15:28.872Z,80.99
2018-01-02T00:16:28.750Z,81.12
2018-01-02T00:17:28.876Z,80.85
2018-01-02T00:18:28.921Z,80.36
2018-01-02T00:19:28.688Z,80.28
2018-01-02T00:20:28.413Z,80.34
2018-01-02T00:21:28.637Z,80.34
2018-01-02T00:22:28.711Z,80.29
2018-01-02T00:23:28.741Z,80.19
2018-01-02T00:24:28.735Z,79.93
2018-01-02T00:25:27.898Z,79.92
2018-01-02T00:26:27.875Z,79.65
2018-01-02T00:27:27.962Z,79.65
2018-01-02T00:28:28.213Z,79.73
2018-01-02T00:29:28.452Z,79.05
2018-01-02T00:30:28.313Z,78.78
2018-01-02T00:31:28.155Z,78.67
2018-01-02T00:32:28.165Z,78.41
2018-01-02T00:33:28.300Z,78.39
2018-01-02T00:34:28.192Z,78.19
2018-01-02T00:35:28.236Z,78.3
2018-01-02T00:36:28.201Z,78.05
2018-01-02T00:37:28.254Z,78.2
2018-01-02T00:38:28.096Z,77.63
2018-01-02T00:39:28.400Z,77.96
2018-01-02T00:40:28.229Z,77.88
2018-01-02T00:41:28.277Z,77.88
2018-01-02T00:42:28.106Z,77.76
2018-01-02T00:43:28.018Z,76.82
2018-01-02T00:44:27.932Z,77.25
2018-01-02T00:45:28.053Z,76.57
2018-01-02T00:46:27.940Z,76.65
2018-01-02T00:47:27.875Z,76.94
2018-01-02T00:48:27.844Z,76.98
2018-01-02T00:49:28.333Z,77.64
2018-01-02T00:50:28.331Z,77.26
2018-01-02T00:51:28.387Z,77.6
2018-01-02T00:52:28.407Z,77.61
2018-01-02T00:53:28.675Z,77.69
2018-01-02T00:54:28.601Z,77.76
2018-01-02T00:55:27.602Z,77.8
2018-01-02T00:56:28.496Z,77.91
2018-01-02T00:57:28.607Z,78.14
2018-01-02T00:58:27.755Z,78.04
2018-01-02T00:59:27.691Z,78.28
2018-01-02T01:00:27.886Z,78.48
2018-01-02T01:01:27.710Z,78.82
2018-01-02T01:02:27.785Z,78.85
2018-01-02T01:03:27.874Z,78.98
2018-01-02T01:05:27.966Z,79.06
2018-01-02T01:06:28.106Z,79.18
2018-01-02T01:07:28.144Z,79.14
2018-01-02T01:08:28.395Z,79.3
2018-01-02T01:09:28.456Z,79.19
2018-01-02T01:10:28.573Z,78.94
2018-01-02T01:11:28.475Z,79.04
2018-01-02T01:12:28.555Z,79.03
2018-01-02T01:13:28.485Z,79.15
2018-01-02T01:14:28.337Z,79.44
2018-01-02T01:15:28.100Z,79.37
2018-01-02T01:16:28.050Z,79.29
2018-01-02T01:18:28.271Z,78.96
2018-01-02T01:19:28.230Z,79.06
2018-01-02T01:20:27.998Z,79.02
2018-01-02T01:21:27.902Z,79
2018-01-02T01:22:27.726Z,79.18
2018-01-02T01:23:27.704Z,79.27
2018-01-02T01:24:27.719Z,79.24
2018-01-02T01:25:27.890Z,78.98
2018-01-02T01:26:28.647Z,78.79
2018-01-02T01:27:28.604Z,78.87
2018-01-02T01:28:28.623Z,78.98
2018-01-02T01:29:28.626Z,78.95
2018-01-02T01:30:28.409Z,78.88
2018-01-02T01:31:28.441Z,78.7
2018-01-02T01:32:28.350Z,78.54
2018-01-02T01:33:28.391Z,78.59
2018-01-02T01:34:28.593Z,78.82
2018-01-02T01:35:28.662Z,78.81
2018-01-02T01:36:28.605Z,79.02
2018-01-02T01:37:28.601Z,78.98
2018-01-02T01:38:28.508Z,79.3
2018-01-02T01:39:28.523Z,78.9
2018-01-02T01:40:28.638Z,79.36
2018-01-02T01:41:28.646Z,78.75
2018-01-02T01:42:28.585Z,78.61
2018-01-02T01:43:28.648Z,78.57
2018-01-02T01:44:28.530Z,78.55
2018-01-02T01:45:28.735Z,78.9
2018-01-02T01:46:28.832Z,78.67
2018-01-02T01:47:28.895Z,78.84
2018-01-02T01:48:28.801Z,78.67
2018-01-02T01:49:28.779Z,78.8
2018-01-02T01:50:28.720Z,78.74
2018-01-02T01:51:28.763Z,79.11
2018-01-02T01:52:28.653Z,78.98
2018-01-02T01:53:28.556Z,78.83
2018-01-02T01:54:28.494Z,78.65
2018-01-02T01:55:28.520Z,78.71
2018-01-02T01:56:27.633Z,78.82
2018-01-02T01:57:27.613Z,78.56
2018-01-02T01:58:27.650Z,78.28
2018-01-02T01:59:27.591Z,78.3
2018-01-02T02:00:28.638Z,78.54
2018-01-02T02:01:27.625Z,78.45
2018-01-02T02:02:28.349Z,78.39
2018-01-02T02:03:28.267Z,78.31
2018-01-02T02:04:28.224Z,78.08
2018-01-02T02:05:28.177Z,78.35
2018-01-02T02:06:28.150Z,78.23
2018-01-02T02:07:28.203Z,78.22
2018-01-02T02:08:28.092Z,78.74
2018-01-02T02:09:28.180Z,78.6
2018-01-02T02:10:28.197Z,78.6
2018-01-02T02:11:28.220Z,78.37
2018-01-02T02:12:28.199Z,78.34
2018-01-02T02:13:28.149Z,78.46
2018-01-02T02:14:28.269Z,78.37
2018-01-02T02:15:28.311Z,78.51
2018-01-02T02:16:28.428Z,78.43
2018-01-02T02:17:28.018Z,78.42
2018-01-02T02:18:27.997Z,78.46
2018-01-02T02:19:28.199Z,78.5
2018-01-02T02:20:28.058Z,78.46
2018-01-02T02:21:28.320Z,78.82
2018-01-02T02:22:28.452Z,78.58
2018-01-02T02:23:28.531Z,78.58
2018-01-02T02:24:27.737Z,78.56
2018-01-02T02:25:27.675Z,78.54
2018-01-02T02:26:27.702Z,78.62
2018-01-02T02:27:28.512Z,78.76
2018-01-02T02:28:28.635Z,78.78
2018-01-02T02:29:28.649Z,78.69
2018-01-02T02:30:28.660Z,78.71
2018-01-02T02:31:27.985Z,78.45
2018-01-02T02:32:27.982Z,78.64
2018-01-02T02:33:27.975Z,78.81
2018-01-02T02:34:28.139Z,78.74
2018-01-02T02:35:28.236Z,78.77
2018-01-02T02:36:27.980Z,78.69
2018-01-02T02:37:28.011Z,78.92
2018-01-02T02:38:27.877Z,78.83
2018-01-02T02:39:28.015Z,78.88
2018-01-02T02:40:28.099Z,78.9
2018-01-02T02:41:28.014Z,79.03
2018-01-02T02:42:27.995Z,79.01
2018-01-02T02:43:28.010Z,78.98
2018-01-02T02:44:28.040Z,78.93
2018-01-02T02:45:28.109Z,78.92
2018-01-02T02:46:28.137Z,78.88
2018-01-02T02:47:28.143Z,78.97
2018-01-02T02:48:28.172Z,79.07
2018-01-02T02:49:28.199Z,78.73
2018-01-02T02:50:28.284Z,78.98
2018-01-02T02:51:28.461Z,79.04
2018-01-02T02:52:28.279Z,78.93
2018-01-02T02:53:28.246Z,79.19
2018-01-02T02:54:28.237Z,79.11
2018-01-02T02:55:28.331Z,78.97
2018-01-02T02:56:28.475Z,79.32
2018-01-02T02:57:28.570Z,79.03
2018-01-02T02:58:28.550Z,79.07
2018-01-02T02:59:28.578Z,79.24
2018-01-02T03:00:28.329Z,79.26
2018-01-02T03:01:28.294Z,79.32
2018-01-02T03:02:29.123Z,79.4
2018-01-02T03:03:29.119Z,79.24
2018-01-02T03:04:29.128Z,79.47
2018-01-02T03:05:29.161Z,79.29
2018-01-02T03:06:29.045Z,79.36
2018-01-02T03:07:28.976Z,79.43
2018-01-02T03:08:28.990Z,79.48
2018-01-02T03:09:29.032Z,79.59
2018-01-02T03:10:28.972Z,79.66
2018-01-02T03:11:28.927Z,79.53
2018-01-02T03:12:28.984Z,79.48
2018-01-02T03:13:29.025Z,79.52
2018-01-02T03:14:28.860Z,79.4
2018-01-02T03:15:28.702Z,79.66
2018-01-02T03:16:28.496Z,79.61
2018-01-02T03:17:28.650Z,79.67
2018-01-02T03:18:28.652Z,79.66
2018-01-02T03:19:28.766Z,79.98
2018-01-02T03:20:28.675Z,80.12
2018-01-02T03:21:28.770Z,80.14
2018-01-02T03:22:28.663Z,80.27
2018-01-02T03:23:28.548Z,80.21
2018-01-02T03:24:28.485Z,79.9
2018-01-02T03:25:28.849Z,79.82
2018-01-02T03:26:28.954Z,79.95
2018-01-02T03:27:28.044Z,80
2018-01-02T03:28:27.886Z,80.1
2018-01-02T03:29:27.874Z,80.08
2018-01-02T03:30:27.916Z,80.25
2018-01-02T03:31:27.987Z,80.06
2018-01-02T03:32:27.798Z,80.24
2018-01-02T03:33:27.773Z,80.09
2018-01-02T03:34:27.757Z,79.88
2018-01-02T03:35:27.853Z,80.01
2018-01-02T03:36:28.051Z,79.76
2018-01-02T03:37:28.036Z,79.81
2018-01-02T03:38:28.103Z,79.72
2018-01-02T03:39:28.072Z,79.78
2018-01-02T03:40:28.138Z,80.14
2018-01-02T03:41:28.194Z,80.06
2018-01-02T03:42:28.402Z,80
2018-01-02T03:43:28.215Z,80.42
2018-01-02T03:44:28.271Z,80.12
2018-01-02T03:45:28.327Z,80.35
2018-01-02T03:46:28.247Z,80.43
2018-01-02T03:47:28.381Z,80.53
2018-01-02T03:48:28.401Z,80.61
2018-01-02T03:49:28.373Z,80.81
2018-01-02T03:50:28.230Z,80.84
2018-01-02T03:51:28.297Z,80.73
2018-01-02T03:52:28.356Z,80.83
2018-01-02T03:53:28.494Z,80.9
2018-01-02T03:54:28.394Z,80.89
2018-01-02T03:55:28.791Z,80.83
2018-01-02T03:56:27.873Z,81.17
2018-01-02T03:57:28.640Z,80.9
2018-01-02T03:58:27.841Z,81.03
2018-01-02T03:59:27.737Z,80.89
2018-01-02T04:00:27.645Z,80.55
2018-01-02T04:01:28.506Z,80.76
2018-01-02T04:02:27.620Z,80.89
2018-01-02T04:03:28.449Z,80.73
2018-01-02T04:04:28.307Z,80.64
2018-01-02T04:05:28.307Z,80.6
2018-01-02T04:06:28.425Z,80.72
2018-01-02T04:07:28.290Z,80.87
2018-01-02T04:08:28.251Z,81.1
2018-01-02T04:09:27.990Z,81.09
2018-01-02T04:10:28.105Z,81.17
2018-01-02T04:11:28.077Z,81.2
2018-01-02T04:12:27.999Z,80.96
2018-01-02T04:13:28.207Z,81.2
2018-01-02T04:14:28.404Z,81.49
2018-01-02T04:15:28.470Z,81.24
2018-01-02T04:16:28.477Z,81.26
2018-01-02T04:17:28.542Z,81.39
2018-01-02T04:18:27.594Z,81.17
2018-01-02T04:19:28.564Z,81.34
2018-01-02T04:21:31.619Z,81.94
2018-01-02T04:22:27.870Z,82.07
2018-01-02T04:23:27.974Z,82.59
2018-01-02T04:24:27.813Z,82.28
2018-01-02T04:25:27.728Z,82.28
2018-01-02T04:26:27.784Z,82
2018-01-02T04:27:28.052Z,81.97
2018-01-02T04:28:27.781Z,82.06
2018-01-02T04:29:27.735Z,81.8
2018-01-02T04:30:28.738Z,81.82
2018-01-02T04:31:28.446Z,82.08
2018-01-02T04:32:27.962Z,82.23
2018-01-02T04:33:28.130Z,82.43
2018-01-02T04:34:28.124Z,82.28
2018-01-02T04:35:28.679Z,82.46
2018-01-02T04:36:28.687Z,82.81
2018-01-02T04:37:27.916Z,82.08
2018-01-02T04:38:27.896Z,82.51
2018-01-02T04:39:27.942Z,82.9
2018-01-02T04:40:28.664Z,83.29
2018-01-02T04:41:28.509Z,83.57
2018-01-02T04:42:28.603Z,83.36
2018-01-02T04:43:28.836Z,83.03
2018-01-02T04:44:28.493Z,83.2
2018-01-02T04:45:27.970Z,83.45
2018-01-02T04:46:27.963Z,83.92
2018-01-02T04:47:28.072Z,84.02
2018-01-02T04:48:28.689Z,83.66
2018-01-02T04:49:28.288Z,84.41
2018-01-02T04:50:28.316Z,83.99
2018-01-02T04:51:28.107Z,83.8
2018-01-02T04:52:28.071Z,84.07
2018-01-02T04:53:28.289Z,84.34
2018-01-02T04:54:27.946Z,84.01
2018-01-02T04:55:28.612Z,84.69
2018-01-02T04:56:28.537Z,84.55
2018-01-02T04:57:28.697Z,84.44
2018-01-02T04:58:28.055Z,84.78
2018-01-02T04:59:28.093Z,84.98
2018-01-02T05:00:28.195Z,84.63
2018-01-02T05:01:28.868Z,84.35
2018-01-02T05:02:27.923Z,84.77
2018-01-02T05:03:28.465Z,84.74
2018-01-02T05:04:28.739Z,84.26
2018-01-02T05:05:28.792Z,84.43
2018-01-02T05:06:28.594Z,85.01
2018-01-02T05:07:28.324Z,84.49
2018-01-02T05:08:28.802Z,84.6
2018-01-02T05:09:28.666Z,84.56
2018-01-02T05:10:28.717Z,84.24
2018-01-02T05:11:28.766Z,84.01
2018-01-02T05:12:28.635Z,84.66
2018-01-02T05:13:28.664Z,84.26
2018-01-02T05:14:28.611Z,84.41
2018-01-02T05:15:28.389Z,84.4
2018-01-02T05:16:28.321Z,84.55
2018-01-02T05:17:28.563Z,84.63
2018-01-02T05:18:28.158Z,84.46
2018-01-02T05:19:28.285Z,84.41
2018-01-02T05:20:28.276Z,84.18
2018-01-02T05:21:28.190Z,84.53
2018-01-02T05:22:28.231Z,83.83
2018-01-02T05:23:28.228Z,84.73
2018-01-02T05:24:28.238Z,84.42
2018-01-02T05:25:28.331Z,84.15
2018-01-02T05:26:28.655Z,84.39
2018-01-02T05:27:28.328Z,84.14
2018-01-02T05:28:28.880Z,83.83
2018-01-02T05:29:28.792Z,84.11
2018-01-02T05:30:28.324Z,84.25
2018-01-02T05:31:28.215Z,84.24
2018-01-02T05:32:28.348Z,84.54
2018-01-02T05:33:28.624Z,84.41
2018-01-02T05:34:28.556Z,84.2
2018-01-02T05:35:28.369Z,84.25
2018-01-02T05:36:28.421Z,84.39
2018-01-02T05:37:28.261Z,84.59
2018-01-02T05:38:28.830Z,84.31
2018-01-02T05:39:28.778Z,84.14
2018-01-02T05:40:28.127Z,84.35
2018-01-02T05:41:28.017Z,84.18
2018-01-02T05:42:28.145Z,84.3
2018-01-02T05:43:28.333Z,84.34
2018-01-02T05:44:28.235Z,83.68
2018-01-02T05:45:28.774Z,83.92
2018-01-02T05:46:28.287Z,83.99
2018-01-02T05:47:27.845Z,83.9
2018-01-02T05:48:28.683Z,84.13
2018-01-02T05:49:28.623Z,83.9
2018-01-02T05:50:28.664Z,83.92
2018-01-02T05:51:27.931Z,83.88
2018-01-02T05:52:28.081Z,83.8
2018-01-02T05:53:28.543Z,83.62
2018-01-02T05:54:28.905Z,84.04
2018-01-02T05:55:28.715Z,83.53
2018-01-02T05:56:28.798Z,83.66
2018-01-02T05:57:28.274Z,83.86
2018-01-02T05:58:28.232Z,83.65
2018-01-02T05:59:27.491Z,83.71
2018-01-02T06:00:28.322Z,83.25
2018-01-02T06:01:27.450Z,83.39
2018-01-02T06:02:28.370Z,83.25
2018-01-02T06:03:28.284Z,83.54
2018-01-02T06:04:28.021Z,83.72
2018-01-02T06:05:28.211Z,83.81
2018-01-02T06:06:27.794Z,83.66
2018-01-02T06:07:27.849Z,83.83
2018-01-02T06:08:28.128Z,83.88
2018-01-02T06:09:28.065Z,83.93
2018-01-02T06:10:27.941Z,83.44
2018-01-02T06:11:28.309Z,84.12
2018-01-02T06:12:27.496Z,83.83
2018-01-02T06:13:28.452Z,84.09
2018-01-02T06:14:28.475Z,83.75
2018-01-02T06:15:27.809Z,83.86
2018-01-02T06:16:28.291Z,83.98
2018-01-02T06:17:27.972Z,83.79
2018-01-02T06:18:27.726Z,83.9
2018-01-02T06:19:27.720Z,83.75
2018-01-02T06:20:27.990Z,83.66
2018-01-02T06:21:28.014Z,83.44
2018-01-02T06:22:27.814Z,83.37
2018-01-02T06:23:27.787Z,83.4
2018-01-02T06:24:27.816Z,83.42
2018-01-02T06:25:27.816Z,83.66
2018-01-02T06:26:27.694Z,83.23
2018-01-02T06:27:27.670Z,83.18
2018-01-02T06:28:28.415Z,83.17
2018-01-02T06:29:28.077Z,83.24
2018-01-02T06:30:28.970Z,83.14
2018-01-02T06:31:28.399Z,83.41
2018-01-02T06:32:28.885Z,83.05
2018-01-02T06:33:29.050Z,83.04
2018-01-02T06:34:28.414Z,82.98
2018-01-02T06:35:28.584Z,83.11
2018-01-02T06:36:28.881Z,83.01
2018-01-02T06:37:29.002Z,82.87
2018-01-02T06:38:28.316Z,82.83
2018-01-02T06:39:28.949Z,82.84
2018-01-02T06:40:29.213Z,82.92
2018-01-02T06:41:28.740Z,82.58
2018-01-02T06:42:28.333Z,82.48
2018-01-02T06:43:28.240Z,82.27
2018-01-02T06:44:28.147Z,82.37
2018-01-02T06:45:28.814Z,82.24
2018-01-02T06:46:28.427Z,82.29
2018-01-02T06:47:28.165Z,82.41
2018-01-02T06:48:28.204Z,82.38
2018-01-02T06:49:28.801Z,82.48
2018-01-02T06:50:28.154Z,82.51
2018-01-02T06:51:28.810Z,82.75
2018-01-02T06:52:28.589Z,82.58
2018-01-02T06:53:28.767Z,82.53
2018-01-02T06:54:28.857Z,82.7
2018-01-02T06:55:29.126Z,82.52
2018-01-02T06:56:28.368Z,82.65
2018-01-02T06:57:29.013Z,82.54
2018-01-02T06:58:28.304Z,82.85
2018-01-02T06:59:28.322Z,82.51
2018-01-02T07:00:27.366Z,82.85
2018-01-02T07:01:28.300Z,82.54
2018-01-02T07:02:27.444Z,82.8
2018-01-02T07:03:27.622Z,82.96
2018-01-02T07:04:27.679Z,82.76
2018-01-02T07:05:27.902Z,82.67
2018-01-02T07:06:27.660Z,82.78
2018-01-02T07:07:27.719Z,82.94
2018-01-02T07:08:27.528Z,82.75
2018-01-02T07:09:27.788Z,82.83
2018-01-02T07:10:27.808Z,82.55
2018-01-02T07:11:27.616Z,82.8
2018-01-02T07:12:27.832Z,82.68
2018-01-02T07:13:27.835Z,82.73
2018-01-02T07:14:27.783Z,82.52
2018-01-02T07:15:28.129Z,82.72
2018-01-02T07:16:27.341Z,82.61
2018-01-02T07:17:28.062Z,82.57
2018-01-02T07:18:28.442Z,82.4
2018-01-02T07:19:27.966Z,82.46
2018-01-02T07:20:27.772Z,82.43
2018-01-02T07:21:27.980Z,82.24
2018-01-02T07:22:28.066Z,82.37
2018-01-02T07:23:27.742Z,82.26
2018-01-02T07:24:27.490Z,82.25
2018-01-02T07:25:27.726Z,82.27
2018-01-02T07:26:27.701Z,82.16
2018-01-02T07:27:27.443Z,82.22
2018-01-02T07:28:28.259Z,82.04
2018-01-02T07:29:28.354Z,82.09
2018-01-02T07:30:27.984Z,82.07
2018-01-02T07:31:28.568Z,82.08
2018-01-02T07:32:28.283Z,81.98
2018-01-02T07:33:28.214Z,81.98
2018-01-02T07:34:28.383Z,82.02
2018-01-02T07:35:28.503Z,82.11
2018-01-02T07:36:28.399Z,82.07
2018-01-02T07:37:28.378Z,81.88
2018-01-02T07:38:28.565Z,81.9
2018-01-02T07:39:28.536Z,81.79
2018-01-02T07:40:28.420Z,81.69
2018-01-02T07:41:28.068Z,81.76
2018-01-02T07:42:28.244Z,81.61
2018-01-02T07:43:28.276Z,81.67
2018-01-02T07:44:28.928Z,81.7
2018-01-02T07:45:28.208Z,81.65
2018-01-02T07:46:28.473Z,81.38
2018-01-02T07:47:28.277Z,81.34
2018-01-02T07:48:28.763Z,81.29
2018-01-02T07:49:27.992Z,81.42
2018-01-02T07:50:28.096Z,81.28
2018-01-02T07:51:28.300Z,81.23
2018-01-02T07:52:28.373Z,81.26
2018-01-02T07:53:28.778Z,81.29
2018-01-02T07:54:28.499Z,81.36
2018-01-02T07:55:28.770Z,81.33
2018-01-02T07:56:28.948Z,81.34
2018-01-02T07:57:28.662Z,80.89
2018-01-02T07:58:28.000Z,80.92
2018-01-02T07:59:28.023Z,80.82
2018-01-02T08:00:28.264Z,80.73
2018-01-02T08:01:28.825Z,80.72
2018-01-02T08:02:29.069Z,80.8
2018-01-02T08:03:28.910Z,80.84
2018-01-02T08:04:28.939Z,80.63
2018-01-02T08:05:28.612Z,80.58
2018-01-02T08:06:28.229Z,80.62
2018-01-02T08:07:29.208Z,80.83
2018-01-02T08:08:28.266Z,80.77
2018-01-02T08:09:29.179Z,80.83
2018-01-02T08:10:28.745Z,80.91
2018-01-02T08:11:28.611Z,80.77
2018-01-02T08:12:28.334Z,80.85
2018-01-02T08:13:28.398Z,80.76
2018-01-02T08:14:28.651Z,80.56
2018-01-02T08:15:28.491Z,80.47
2018-01-02T08:16:29.044Z,80.66
2018-01-02T08:17:29.382Z,80.72
2018-01-02T08:18:28.556Z,80.43
2018-01-02T08:19:28.327Z,80.54
2018-01-02T08:20:28.480Z,80.36
2018-01-02T08:21:28.425Z,80.39
2018-01-02T08:22:28.528Z,80.45
2018-01-02T08:23:28.482Z,80.45
2018-01-02T08:24:29.109Z,80.56
2018-01-02T08:25:28.317Z,80.05
2018-01-02T08:26:29.170Z,80.34
2018-01-02T08:27:28.469Z,80.33
2018-01-02T08:28:29.009Z,80.39
2018-01-02T08:29:29.158Z,80.39
2018-01-02T08:30:29.181Z,80.5
2018-01-02T08:31:28.276Z,80.42
2018-01-02T08:32:28.274Z,80.5
2018-01-02T08:33:28.307Z,80.32
2018-01-02T08:34:28.737Z,80.43
2018-01-02T08:35:28.583Z,80.28
2018-01-02T08:36:28.664Z,80.29
2018-01-02T08:37:28.836Z,80.12
2018-01-02T08:38:28.840Z,80.32
2018-01-02T08:39:28.798Z,80.17
2018-01-02T08:40:28.809Z,80.3
2018-01-02T08:41:28.853Z,80.2
2018-01-02T08:42:28.536Z,80.13
2018-01-02T08:43:28.696Z,80.21
2018-01-02T08:44:28.597Z,80.1
2018-01-02T08:45:28.974Z,79.87
2018-01-02T08:46:28.989Z,80.02
2018-01-02T08:47:28.167Z,80.07
2018-01-02T08:48:28.299Z,79.93
2018-01-02T08:49:28.585Z,79.82
2018-01-02T08:50:28.300Z,79.9
2018-01-02T08:51:29.095Z,79.96
2018-01-02T08:52:28.824Z,80.05
2018-01-02T08:53:28.954Z,80.06
2018-01-02T08:54:29.094Z,80.06
2018-01-02T08:55:28.698Z,80.15
2018-01-02T08:56:28.706Z,80.08
2018-01-02T08:57:28.762Z,80.06
2018-01-02T08:58:28.327Z,80.12
2018-01-02T08:59:28.360Z,79.94
2018-01-02T09:00:28.236Z,79.99
2018-01-02T09:01:27.492Z,80.1
2018-01-02T09:02:27.609Z,80.17
2018-01-02T09:03:27.665Z,80.06
2018-01-02T09:04:27.608Z,80.06
2018-01-02T09:05:28.134Z,80.1
2018-01-02T09:06:27.984Z,80.07
2018-01-02T09:07:27.865Z,80.08
2018-01-02T09:08:27.992Z,79.95
2018-01-02T09:09:28.257Z,80.08
2018-01-02T09:10:28.306Z,80.04
2018-01-02T09:11:27.980Z,80.04
2018-01-02T09:12:27.734Z,80
2018-01-02T09:13:27.662Z,80.17
2018-01-02T09:14:28.197Z,80.05
2018-01-02T09:15:28.156Z,80.01
2018-01-02T09:16:28.051Z,80.1
2018-01-02T09:17:28.136Z,79.91
2018-01-02T09:18:28.499Z,79.94
2018-01-02T09:19:27.699Z,79.73
2018-01-02T09:20:27.939Z,79.85
2018-01-02T09:21:28.183Z,79.82
2018-01-02T09:22:27.966Z,79.59
2018-01-02T09:23:27.725Z,79.8
2018-01-02T09:24:27.607Z,79.78
2018-01-02T09:25:27.598Z,79.88
2018-01-02T09:26:27.614Z,79.86
2018-01-02T09:27:28.424Z,79.88
2018-01-02T09:28:27.532Z,80.06
2018-01-02T09:29:27.602Z,80.09
2018-01-02T09:30:27.668Z,80.11
2018-01-02T09:31:27.984Z,80.06
2018-01-02T09:32:27.783Z,80.06
2018-01-02T09:33:28.508Z,80.06
2018-01-02T09:34:28.281Z,80.07
2018-01-02T09:35:27.894Z,80.05
2018-01-02T09:36:28.051Z,80.26
2018-01-02T09:37:28.174Z,80.19
2018-01-02T09:38:28.598Z,79.93
2018-01-02T09:39:28.287Z,79.95
2018-01-02T09:40:27.964Z,80
2018-01-02T09:41:28.651Z,79.92
2018-01-02T09:42:28.385Z,79.99
2018-01-02T09:43:28.630Z,79.92
2018-01-02T09:44:28.000Z,80.07
2018-01-02T09:45:27.948Z,80.04
2018-01-02T09:46:28.030Z,79.97
2018-01-02T09:47:28.196Z,79.96
2018-01-02T09:48:28.440Z,79.83
2018-01-02T09:49:28.435Z,79.9
2018-01-02T09:50:28.238Z,79.64
2018-01-02T09:51:27.968Z,79.71
2018-01-02T09:52:28.255Z,79.59
2018-01-02T09:53:28.633Z,79.6
2018-01-02T09:54:27.831Z,79.6
2018-01-02T09:55:28.764Z,79.51
2018-01-02T09:56:28.073Z,79.57
2018-01-02T09:57:28.084Z,79.45
2018-01-02T09:58:28.281Z,78.81
2018-01-02T09:59:28.183Z,78.65
2018-01-02T10:00:28.007Z,78.62
2018-01-02T10:01:28.642Z,78.97
2018-01-02T10:02:27.642Z,78.72
2018-01-02T10:03:28.647Z,79.03
2018-01-02T10:04:27.718Z,78.61
2018-01-02T10:05:28.476Z,78.87
2018-01-02T10:06:28.549Z,78.83
2018-01-02T10:07:28.447Z,78.81
2018-01-02T10:08:28.142Z,78.7
2018-01-02T10:11:32.907Z,78.9
2018-01-02T10:12:27.914Z,79.05
2018-01-02T10:13:28.609Z,79.17
2018-01-02T10:14:28.472Z,79.15
2018-01-02T10:15:28.911Z,79.24
2018-01-02T10:16:28.074Z,79.3
2018-01-02T10:17:28.205Z,79.37
2018-01-02T10:18:28.361Z,79.45
2018-01-02T10:19:28.521Z,79.57
2018-01-02T10:20:28.018Z,79.57
2018-01-02T10:21:27.773Z,79.79
2018-01-02T10:22:28.621Z,79.81
2018-01-02T10:23:27.735Z,79.87
2018-01-02T10:24:28.392Z,79.66
2018-01-02T10:25:28.518Z,79.58
2018-01-02T10:26:28.485Z,79.46
2018-01-02T10:27:28.595Z,79.28
2018-01-02T10:28:28.652Z,79.29
2018-01-02T10:29:27.800Z,79.16
2018-01-02T10:30:28.012Z,79
2018-01-02T10:31:28.546Z,78.8
2018-01-02T10:32:29.207Z,79.16
2018-01-02T10:33:28.402Z,79.05
2018-01-02T10:34:28.467Z,78.91
2018-01-02T10:35:28.696Z,79.1
2018-01-02T10:36:28.816Z,79.01
2018-01-02T10:37:28.547Z,79.07
2018-01-02T10:38:28.595Z,79.04
2018-01-02T10:39:28.780Z,79.05
2018-01-02T10:40:28.392Z,79.04
2018-01-02T10:41:28.641Z,78.99
2018-01-02T10:42:28.712Z,79.11
2018-01-02T10:43:28.250Z,79.07
2018-01-02T10:44:28.204Z,78.95
2018-01-02T10:45:28.117Z,78.36
2018-01-02T10:46:27.943Z,78.69
2018-01-02T10:47:28.324Z,77.95
2018-01-02T10:48:28.738Z,77.39
2018-01-02T10:49:28.842Z,77.14
2018-01-02T10:50:28.537Z,77.3
2018-01-02T10:51:28.670Z,77.1
2018-01-02T10:52:28.363Z,76.76
2018-01-02T10:53:28.661Z,76.73
2018-01-02T10:54:28.881Z,76.9
2018-01-02T10:55:28.891Z,76.5
2018-01-02T10:56:28.002Z,76.72
2018-01-02T10:57:28.070Z,76.39
2018-01-02T10:58:28.534Z,76.39
2018-01-02T10:59:28.541Z,75.82
2018-01-02T11:00:28.817Z,76.28
2018-01-02T11:01:27.924Z,75.97
2018-01-02T11:02:28.498Z,75.18
2018-01-02T11:03:27.816Z,76.17
2018-01-02T11:04:27.894Z,75.97
2018-01-02T11:05:28.067Z,76.77
2018-01-02T11:06:28.261Z,76.3
2018-01-02T11:07:28.393Z,76.27
2018-01-02T11:08:27.866Z,76.3
2018-01-02T11:09:28.483Z,76.51
2018-01-02T11:10:28.302Z,76.53
2018-01-02T11:11:28.469Z,76.56
2018-01-02T11:12:27.758Z,76.35
2018-01-02T11:13:27.788Z,76.72
2018-01-02T11:14:27.971Z,76.77
2018-01-02T11:15:28.121Z,76.64
2018-01-02T11:16:28.527Z,75.72
2018-01-02T11:17:27.531Z,76.27
2018-01-02T11:18:27.622Z,75.52
2018-01-02T11:19:27.898Z,75.3
2018-01-02T11:20:28.005Z,75.61
2018-01-02T11:21:28.359Z,75.93
2018-01-02T11:22:28.138Z,75.88
2018-01-02T11:23:28.152Z,76.04
2018-01-02T11:24:28.268Z,76.27
2018-01-02T11:25:28.462Z,76.64
2018-01-02T11:26:28.484Z,76.62
2018-01-02T11:27:28.318Z,75.88
2018-01-02T11:28:28.513Z,75.7
2018-01-02T11:29:28.365Z,76.16
2018-01-02T11:30:28.750Z,75.86
2018-01-02T11:31:28.064Z,76.26
2018-01-02T11:32:28.396Z,76.48
2018-01-02T11:33:27.727Z,76.39
2018-01-02T11:34:28.026Z,76.55
2018-01-02T11:35:27.900Z,75.93
2018-01-02T11:36:28.043Z,76.37
2018-01-02T11:37:28.328Z,75.81
2018-01-02T11:38:27.940Z,75.68
2018-01-02T11:39:28.147Z,76.35
2018-01-02T11:40:28.299Z,75.19
2018-01-02T11:41:28.502Z,75.86
2018-01-02T11:42:28.636Z,75.7
2018-01-02T11:43:27.880Z,75.05
2018-01-02T11:44:27.773Z,74.24
2018-01-02T11:45:28.023Z,75.23
2018-01-02T11:46:28.064Z,74.85
2018-01-02T11:47:28.372Z,74.45
2018-01-02T11:48:28.456Z,74.42
2018-01-02T11:49:27.810Z,75.11
2018-01-02T11:50:27.731Z,75
2018-01-02T11:51:28.557Z,74.72
2018-01-02T11:52:27.947Z,73.56
2018-01-02T11:53:28.105Z,74
2018-01-02T11:54:28.150Z,74.05
2018-01-02T11:55:28.238Z,74.24
2018-01-02T11:56:27.793Z,74
2018-01-02T11:57:28.508Z,74.82
2018-01-02T11:58:27.716Z,75.05
2018-01-02T11:59:28.512Z,74.33
2018-01-02T12:00:27.789Z,74.61
2018-01-02T12:01:28.193Z,74.55
2018-01-02T12:02:28.440Z,74.75
2018-01-02T12:03:28.746Z,74.97
2018-01-02T12:04:28.482Z,74.79
2018-01-02T12:05:28.668Z,75
2018-01-02T12:06:27.898Z,74.78
2018-01-02T12:07:28.171Z,75.05
2018-01-02T12:08:28.451Z,74.83
2018-01-02T12:09:28.026Z,74.32
2018-01-02T12:10:28.498Z,75.19
2018-01-02T12:11:28.566Z,75.3
2018-01-02T12:12:28.158Z,74.09
2018-01-02T12:13:28.429Z,74.16
2018-01-02T12:14:27.874Z,74.57
2018-01-02T12:15:27.938Z,74.93
2018-01-02T12:16:28.161Z,75.04
2018-01-02T12:17:28.138Z,75.08
2018-01-02T12:18:28.503Z,74.87
2018-01-02T12:19:28.674Z,74.33
2018-01-02T12:20:28.518Z,74.82
2018-01-02T12:21:28.713Z,74.59
2018-01-02T12:22:27.709Z,74.95
2018-01-02T12:23:28.662Z,75.17
2018-01-02T12:24:28.600Z,75.37
2018-01-02T12:25:28.561Z,75.4
2018-01-02T12:26:28.605Z,75.46
2018-01-02T12:27:27.899Z,75.8
2018-01-02T12:28:28.110Z,76.13
2018-01-02T12:29:28.306Z,76.22
2018-01-02T12:30:28.375Z,76.02
2018-01-02T12:31:28.724Z,76.22
2018-01-02T12:32:28.715Z,76.34
2018-01-02T12:33:28.068Z,77.1
2018-01-02T12:34:28.200Z,76.97
2018-01-02T12:35:28.346Z,77.5
2018-01-02T12:36:28.184Z,77.35
2018-01-02T12:37:28.450Z,77.66
2018-01-02T12:38:28.322Z,77.77
2018-01-02T12:39:29.122Z,77.73
2018-01-02T12:40:28.649Z,77.62
2018-01-02T12:41:28.704Z,77.81
2018-01-02T12:42:28.544Z,77.87
2018-01-02T12:43:29.013Z,78.01
2018-01-02T12:44:29.134Z,78.37
2018-01-02T12:45:28.707Z,78.41
2018-01-02T12:46:28.396Z,79.03
2018-01-02T12:47:29.156Z,78.56
2018-01-02T12:48:28.304Z,78.58
2018-01-02T12:49:29.004Z,80.11
2018-01-02T12:50:28.513Z,79.09
2018-01-02T12:51:28.818Z,79.33
2018-01-02T12:52:29.101Z,79.13
2018-01-02T12:53:28.624Z,79.79
2018-01-02T12:54:29.113Z,79.18
2018-01-02T12:55:28.520Z,79.12
2018-01-02T12:57:28.878Z,79.65
2018-01-02T12:58:28.690Z,80.95
2018-01-02T12:59:28.942Z,80.29
2018-01-02T13:00:29.003Z,79.54
2018-01-02T13:01:29.010Z,79.47
2018-01-02T13:02:29.012Z,79.22